createdAt,value
2022-10-25T00:01:33.979Z,3.80
2022-10-25T00:06:34.771Z,3.90
2022-10-25T00:11:35.484Z,3.60
2022-10-25T00:16:36.296Z,3.50
2022-10-25T00:21:36.961Z,3.50
2022-10-25T00:26:37.679Z,3.50
2022-10-25T00:31:38.440Z,7.30
2022-10-25T00:36:39.149Z,3.50
2022-10-25T00:41:39.864Z,4.10
2022-10-25T00:46:40.610Z,3.50
2022-10-25T00:51:41.325Z,3.60
2022-10-25T00:56:42.089Z,3.80
2022-10-25T01:01:42.885Z,3.70
2022-10-25T01:06:43.655Z,3.50
2022-10-25T01:11:44.395Z,3.50
2022-10-25T01:16:45.125Z,3.40
2022-10-25T01:21:45.852Z,3.50
2022-10-25T01:26:46.615Z,3.40
2022-10-25T01:31:47.312Z,3.80
2022-10-25T01:36:48.041Z,3.60
2022-10-25T01:41:48.753Z,3.60
2022-10-25T01:46:49.487Z,3.60
2022-10-25T01:51:50.232Z,3.60
2022-10-25T01:56:50.952Z,3.30
2022-10-25T02:01:51.675Z,3.90
2022-10-25T02:06:52.407Z,3.80
2022-10-25T02:11:53.128Z,3.80
2022-10-25T02:16:53.927Z,3.70
2022-10-25T02:21:54.627Z,3.30
2022-10-25T02:26:55.335Z,3.40
2022-10-25T02:31:56.070Z,3.20
2022-10-25T02:36:56.776Z,3.40
2022-10-25T02:41:57.518Z,3.10
2022-10-25T02:46:58.233Z,3.10
2022-10-25T02:51:58.953Z,3.10
2022-10-25T02:56:59.682Z,3.10
2022-10-25T03:02:00.510Z,3.20
2022-10-25T03:07:01.201Z,3.10
2022-10-25T03:12:08.963Z,3.20
2022-10-25T03:17:02.656Z,5.30
2022-10-25T03:22:03.360Z,3.50
2022-10-25T03:27:04.074Z,3.20
2022-10-25T03:32:05.007Z,3.00
2022-10-25T03:37:05.807Z,3.20
2022-10-25T03:42:06.496Z,3.10
2022-10-25T03:47:07.373Z,3.20
2022-10-25T03:52:08.252Z,2.70
2022-10-25T03:57:08.981Z,2.60
2022-10-25T04:02:09.732Z,2.50
2022-10-25T04:07:10.485Z,2.90
2022-10-25T04:12:11.221Z,2.20
2022-10-25T04:17:12.124Z,2.10
2022-10-25T04:22:12.964Z,2.10
2022-10-25T04:27:13.832Z,2.10
2022-10-25T04:32:14.676Z,1.90
2022-10-25T04:37:15.386Z,2.00
2022-10-25T04:42:16.283Z,1.80
2022-10-25T04:47:16.971Z,1.90
2022-10-25T04:52:17.903Z,1.90
2022-10-25T04:57:18.644Z,1.80
2022-10-25T05:02:19.532Z,1.90
2022-10-25T05:07:20.345Z,1.70
2022-10-25T05:12:21.037Z,1.70
2022-10-25T05:17:21.948Z,1.70
2022-10-25T05:22:22.773Z,1.70
2022-10-25T05:27:23.392Z,2.00
2022-10-25T05:32:24.236Z,2.10
2022-10-25T05:37:25.004Z,2.10
2022-10-25T05:42:25.796Z,2.10
2022-10-25T05:47:26.603Z,2.30
2022-10-25T05:52:27.321Z,2.10
2022-10-25T05:57:28.245Z,2.10
2022-10-25T06:02:28.938Z,2.20
2022-10-25T06:07:29.836Z,2.10
2022-10-25T06:12:30.588Z,2.00
2022-10-25T06:17:31.223Z,2.50
2022-10-25T06:22:32.043Z,2.20
2022-10-25T06:27:32.848Z,2.00
2022-10-25T06:32:33.666Z,2.00
2022-10-25T06:37:34.276Z,2.10
2022-10-25T06:42:34.952Z,2.00
2022-10-25T06:47:35.646Z,1.90
2022-10-25T06:52:36.291Z,1.90
2022-10-25T06:57:36.998Z,2.00
2022-10-25T07:02:37.671Z,4.10
2022-10-25T07:07:38.332Z,2.40
2022-10-25T07:12:39.046Z,2.30
2022-10-25T07:17:39.699Z,4.20
2022-10-25T07:22:40.410Z,1.90
2022-10-25T07:27:41.046Z,2.20
2022-10-25T07:32:42.624Z,2.00
2022-10-25T07:37:42.354Z,1.90
2022-10-25T07:42:43.030Z,2.00
2022-10-25T07:47:43.730Z,2.60
2022-10-25T07:52:44.413Z,4.20
2022-10-25T07:57:45.271Z,3.00
2022-10-25T08:02:45.747Z,4.20
2022-10-25T08:07:46.793Z,4.10
2022-10-25T08:12:47.127Z,4.30
2022-10-25T08:17:48.222Z,6.00
2022-10-25T08:22:48.657Z,4.00
2022-10-25T08:27:49.504Z,4.20
2022-10-25T08:32:50.271Z,4.20
2022-10-25T08:37:50.915Z,4.10
2022-10-25T08:42:51.596Z,3.00
2022-10-25T08:47:52.319Z,2.40
2022-10-25T08:52:52.877Z,2.30
2022-10-25T08:57:53.557Z,2.30
2022-10-25T09:02:54.271Z,2.60
2022-10-25T09:07:54.941Z,2.20
2022-10-25T09:12:55.653Z,2.50
2022-10-25T09:17:56.486Z,2.30
2022-10-25T09:22:57.166Z,2.30
2022-10-25T09:27:57.854Z,2.40
2022-10-25T09:32:58.576Z,2.20
2022-10-25T09:37:59.208Z,2.30
2022-10-25T09:42:59.913Z,3.10
2022-10-25T09:48:00.553Z,2.60
2022-10-25T09:53:01.222Z,2.70
2022-10-25T09:58:01.872Z,2.90
2022-10-25T10:03:02.596Z,3.00
2022-10-25T10:08:03.252Z,2.60
2022-10-25T10:13:03.939Z,2.60
2022-10-25T10:18:04.720Z,2.60
2022-10-25T10:23:07.881Z,2.90
2022-10-25T10:28:05.863Z,2.60
2022-10-25T10:33:06.532Z,2.90
2022-10-25T10:38:07.186Z,2.30
2022-10-25T10:43:07.877Z,3.10
2022-10-25T10:48:08.537Z,2.80
2022-10-25T10:53:09.191Z,2.40
2022-10-25T10:58:10.056Z,2.40
2022-10-25T11:03:10.838Z,2.50
2022-10-25T11:08:11.624Z,2.90
2022-10-25T11:13:12.346Z,2.90
2022-10-25T11:18:13.139Z,2.70
2022-10-25T11:23:13.952Z,2.40
2022-10-25T11:28:14.614Z,2.60
2022-10-25T11:33:15.471Z,2.40
2022-10-25T11:38:16.135Z,2.20
2022-10-25T11:43:16.862Z,2.30
2022-10-25T11:48:17.587Z,2.70
2022-10-25T11:53:18.333Z,2.70
2022-10-25T11:58:19.005Z,2.80
2022-10-25T12:03:19.746Z,3.00
2022-10-25T12:08:20.449Z,2.90
2022-10-25T12:13:21.216Z,2.80
2022-10-25T12:18:26.056Z,2.30
2022-10-25T12:23:22.545Z,2.30
2022-10-25T12:28:23.291Z,2.30
2022-10-25T12:33:24.071Z,2.20
2022-10-25T12:38:24.780Z,2.20
2022-10-25T12:43:25.461Z,2.30
2022-10-25T12:48:26.163Z,3.10
2022-10-25T12:53:26.931Z,2.70
2022-10-25T12:58:27.622Z,2.20
2022-10-25T13:03:28.349Z,2.10
2022-10-25T13:08:29.059Z,2.30
2022-10-25T13:13:29.802Z,2.00
2022-10-25T13:18:30.510Z,2.10
2022-10-25T13:23:31.243Z,2.10
2022-10-25T13:28:35.991Z,2.30
2022-10-25T13:33:32.462Z,2.30
2022-10-25T13:38:38.056Z,2.50
2022-10-25T13:43:34.745Z,2.40
2022-10-25T13:48:34.352Z,2.80
2022-10-25T13:53:35.029Z,2.90
2022-10-25T13:58:35.709Z,2.30
2022-10-25T14:03:36.404Z,2.30
2022-10-25T14:08:37.067Z,3.00
2022-10-25T14:13:37.745Z,3.00
2022-10-25T14:18:38.408Z,3.00
2022-10-25T14:23:39.092Z,2.30
2022-10-25T14:28:39.789Z,2.60
2022-10-25T14:33:41.887Z,2.60
2022-10-25T14:38:41.204Z,2.70
2022-10-25T14:43:41.934Z,2.50
2022-10-25T14:48:42.701Z,3.40
2022-10-25T14:53:43.313Z,2.90
2022-10-25T14:58:44.040Z,2.70
2022-10-25T15:03:44.691Z,2.90
2022-10-25T15:09:00.766Z,3.50
2022-10-25T15:13:46.936Z,3.00
2022-10-25T15:18:46.633Z,2.80
2022-10-25T15:23:47.277Z,4.00
2022-10-25T15:28:47.937Z,3.90
2022-10-25T15:33:48.657Z,3.70
2022-10-25T15:39:07.199Z,3.50
2022-10-25T15:43:50.952Z,3.70
2022-10-25T15:48:50.651Z,3.60
2022-10-25T15:53:51.423Z,3.70
2022-10-25T15:58:52.120Z,3.70
2022-10-25T16:03:52.770Z,4.70
2022-10-25T16:08:53.567Z,5.30
2022-10-25T16:13:54.310Z,16.20
2022-10-25T16:18:55.709Z,6.30
2022-10-25T16:23:56.016Z,11.60
2022-10-25T16:28:56.846Z,9.50
2022-10-25T16:33:57.578Z,7.10
2022-10-25T16:38:58.501Z,5.60
2022-10-25T16:43:59.249Z,8.30
2022-10-25T16:49:01.993Z,6.90
2022-10-25T16:54:00.615Z,7.40
2022-10-25T16:59:01.465Z,6.70
2022-10-25T17:04:02.278Z,7.60
2022-10-25T17:09:02.959Z,8.00
2022-10-25T17:14:03.858Z,7.70
2022-10-25T17:19:04.677Z,7.40
2022-10-25T17:24:05.432Z,6.70
2022-10-25T17:29:06.291Z,7.60
2022-10-25T17:34:07.131Z,7.90
2022-10-25T17:39:07.823Z,7.50
2022-10-25T17:44:08.651Z,9.80
2022-10-25T17:49:09.431Z,9.70
2022-10-25T17:54:10.236Z,10.80
2022-10-25T17:59:11.097Z,9.80
2022-10-25T18:04:11.817Z,8.20
2022-10-25T18:09:12.731Z,6.90
2022-10-25T18:14:13.204Z,7.10
2022-10-25T18:19:13.904Z,6.80
2022-10-25T18:24:14.703Z,6.30
2022-10-25T18:29:15.460Z,5.60
2022-10-25T18:34:16.143Z,5.40
2022-10-25T18:39:17.007Z,5.50
2022-10-25T18:44:17.858Z,6.60
2022-10-25T18:49:18.568Z,5.50
2022-10-25T18:54:19.380Z,6.50
2022-10-25T18:59:20.208Z,7.20
2022-10-25T19:04:20.885Z,6.70
2022-10-25T19:09:21.773Z,6.50
2022-10-25T19:14:22.491Z,9.60
2022-10-25T19:19:23.223Z,6.80
2022-10-25T19:24:23.987Z,8.30
2022-10-25T19:29:24.718Z,10.00
2022-10-25T19:34:25.563Z,9.50
2022-10-25T19:39:26.351Z,10.10
2022-10-25T19:44:27.046Z,9.60
2022-10-25T19:49:27.874Z,8.80
2022-10-25T19:54:28.615Z,9.80
2022-10-25T19:59:29.321Z,9.50
2022-10-25T20:04:30.180Z,9.50
2022-10-25T20:09:30.890Z,9.80
2022-10-25T20:14:31.626Z,10.60
2022-10-25T20:19:32.401Z,11.10
2022-10-25T20:30:21.760Z,11.90
2022-10-25T20:35:24.813Z,8.10
2022-10-25T20:40:23.238Z,6.90
2022-10-25T20:45:24.023Z,36.10
2022-10-25T20:50:24.741Z,22.10
2022-10-25T20:55:25.622Z,7.30
2022-10-25T21:00:26.339Z,6.80
2022-10-25T21:05:27.210Z,7.30
2022-10-25T21:10:28.023Z,7.20
2022-10-25T21:15:35.762Z,7.40
2022-10-25T21:20:29.527Z,7.90
2022-10-25T21:25:30.307Z,8.40
2022-10-25T21:30:31.081Z,9.30
2022-10-25T21:35:31.829Z,13.30
2022-10-25T21:40:32.541Z,9.60
2022-10-25T21:45:33.304Z,8.90
2022-10-25T21:50:34.249Z,9.10
2022-10-25T21:55:35.050Z,9.70
2022-10-25T22:00:35.812Z,9.40
2022-10-25T22:05:36.530Z,10.00
2022-10-25T22:10:37.285Z,9.50
2022-10-25T22:15:37.989Z,9.40
2022-10-25T22:20:38.767Z,9.30
2022-10-25T22:25:39.494Z,9.80
2022-10-25T22:30:40.224Z,13.80
2022-10-25T22:35:40.989Z,28.80
2022-10-25T22:40:41.713Z,36.90
2022-10-25T22:45:42.435Z,26.00
2022-10-25T22:50:43.155Z,17.70
2022-10-25T22:55:43.857Z,14.00
2022-10-25T23:00:44.604Z,11.80
2022-10-25T23:05:45.325Z,10.40
2022-10-25T23:10:46.034Z,10.70
2022-10-25T23:15:46.761Z,10.90
2022-10-25T23:20:47.509Z,9.60
2022-10-25T23:25:48.234Z,9.30
2022-10-25T23:30:48.964Z,9.40
2022-10-25T23:35:49.676Z,8.40
2022-10-25T23:40:50.413Z,8.50
2022-10-25T23:45:51.166Z,8.50
2022-10-25T23:50:51.905Z,8.40
2022-10-25T23:55:52.624Z,8.60
